Time;durP1;ratioP1;P1;durP2;ratioP2;P2;SDS_P1;SDS_P2;PMS_P1;PMS_P2;Temp;Humidity;BMP_temperature;BMP_pressure;BME280_temperature;BME280_humidity;BME280_pressure;Samples;Min_cycle;Max_cycle;Signal;HPM_P1;HPM_P2
2023/08/26 00:01:47;;;;;;;2.85;2.50;;;;;;;;;;5017472;28;20210;-63
2023/08/26 00:04:15;;;;;;;2.60;2.40;;;;;;;;;;5017397;28;20207;-63
2023/08/26 00:06:42;;;;;;;2.80;2.60;;;;;;;;;;5017505;28;20206;-63
2023/08/26 00:09:10;;;;;;;2.80;2.60;;;;;;;;;;5017138;28;20293;-63
2023/08/26 00:11:37;;;;;;;2.72;2.53;;;;;;;;;;5016705;28;20246;-63
2023/08/26 00:14:05;;;;;;;3.15;2.50;;;;;;;;;;5017096;28;20217;-63
2023/08/26 00:16:33;;;;;;;2.80;2.60;;;;;;;;;;5017011;28;20214;-63
2023/08/26 00:19:02;;;;;;;2.63;2.42;;;;;;;;;;5017219;28;20213;-63
2023/08/26 00:21:31;;;;;;;3.15;2.72;;;;;;;;;;5017117;28;20493;-63
2023/08/26 00:23:59;;;;;;;2.67;2.47;;;;;;;;;;5017442;28;20268;-63
2023/08/26 00:26:26;;;;;;;2.40;2.20;;;;;;;;;;5017265;28;20206;-63
2023/08/26 00:28:55;;;;;;;2.70;2.50;;;;;;;;;;5017439;28;20202;-63
2023/08/26 00:31:23;;;;;;;2.40;2.25;;;;;;;;;;5021442;28;20210;-63
2023/08/26 00:33:50;;;;;;;2.72;2.50;;;;;;;;;;5021095;28;20245;-63
2023/08/26 00:36:19;;;;;;;2.33;2.22;;;;;;;;;;5020800;28;20206;-63
2023/08/26 00:38:47;;;;;;;2.60;2.40;;;;;;;;;;5020577;28;20234;-63
2023/08/26 00:41:14;;;;;;;2.92;2.47;;;;;;;;;;5020437;28;20215;-63
2023/08/26 00:43:42;;;;;;;2.80;2.60;;;;;;;;;;5019724;28;20207;-63
2023/08/26 00:46:10;;;;;;;2.80;2.60;;;;;;;;;;5020481;28;20206;-63
2023/08/26 00:48:37;;;;;;;3.05;2.55;;;;;;;;;;5020736;28;20207;-63
2023/08/26 00:51:05;;;;;;;3.03;2.55;;;;;;;;;;5020535;28;20530;-63
2023/08/26 00:53:35;;;;;;;2.65;2.45;;;;;;;;;;5020728;28;20282;-63
2023/08/26 00:56:03;;;;;;;3.15;2.83;;;;;;;;;;5020419;28;20258;-62
2023/08/26 00:58:31;;;;;;;3.00;2.80;;;;;;;;;;5020151;28;20230;-63
2023/08/26 01:00:58;;;;;;;2.90;2.65;;;;;;;;;;5020303;28;20516;-63
2023/08/26 01:03:26;;;;;;;3.00;2.70;;;;;;;;;;5020206;28;20214;-63
2023/08/26 01:05:53;;;;;;;2.70;2.50;;;;;;;;;;5020432;28;20555;-63
2023/08/26 01:08:21;;;;;;;3.17;2.88;;;;;;;;;;5020427;28;20248;-63
2023/08/26 01:10:55;;;;;;;3.10;2.80;;;;;;;;;;5019732;28;20695;-63
2023/08/26 01:13:25;;;;;;;2.70;2.50;;;;;;;;;;5019466;28;20205;-63
2023/08/26 01:15:53;;;;;;;2.72;2.53;;;;;;;;;;5019687;28;20579;-63
2023/08/26 01:18:21;;;;;;;3.00;2.80;;;;;;;;;;5019335;28;20284;-63
2023/08/26 01:20:49;;;;;;;3.03;2.83;;;;;;;;;;5019690;28;20767;-63
2023/08/26 01:23:20;;;;;;;3.58;2.90;;;;;;;;;;5019791;28;20206;-63
2023/08/26 01:25:49;;;;;;;3.28;2.97;;;;;;;;;;5019909;28;20206;-63
2023/08/26 01:28:17;;;;;;;3.20;3.00;;;;;;;;;;5019615;28;20210;-63
2023/08/26 01:30:44;;;;;;;3.03;2.83;;;;;;;;;;5020258;28;20585;-63
2023/08/26 01:33:21;;;;;;;3.00;2.70;;;;;;;;;;5019664;28;20207;-63
2023/08/26 01:35:51;;;;;;;3.47;2.75;;;;;;;;;;5019859;28;20586;-63
2023/08/26 01:38:19;;;;;;;3.22;2.90;;;;;;;;;;5019608;28;20602;-63
2023/08/26 01:40:49;;;;;;;3.38;3.08;;;;;;;;;;5018904;28;20321;-63
2023/08/26 01:43:18;;;;;;;3.47;3.17;;;;;;;;;;5019805;28;20276;-63
2023/08/26 01:45:46;;;;;;;4.80;2.85;;;;;;;;;;5019429;28;20504;-63
2023/08/26 01:48:14;;;;;;;3.28;3.00;;;;;;;;;;5019294;28;20202;-63
2023/08/26 01:50:42;;;;;;;3.20;3.00;;;;;;;;;;5018960;28;20650;-63
2023/08/26 01:53:09;;;;;;;3.08;2.78;;;;;;;;;;5019161;28;20214;-64
2023/08/26 01:55:37;;;;;;;3.58;2.83;;;;;;;;;;5019468;28;20210;-63
2023/08/26 01:58:05;;;;;;;3.20;2.97;;;;;;;;;;5018985;28;20230;-63
2023/08/26 02:00:34;;;;;;;3.42;3.10;;;;;;;;;;5019247;28;20207;-63
2023/08/26 02:03:01;;;;;;;3.00;2.80;;;;;;;;;;5019427;28;20210;-63
2023/08/26 02:05:29;;;;;;;3.55;3.20;;;;;;;;;;5019147;28;20210;-63
2023/08/26 02:07:57;;;;;;;4.32;3.33;;;;;;;;;;5018815;28;20264;-63
2023/08/26 02:10:24;;;;;;;3.22;2.92;;;;;;;;;;5019234;28;20238;-63
2023/08/26 02:12:52;;;;;;;3.25;3.05;;;;;;;;;;5018790;28;20206;-63
2023/08/26 02:15:19;;;;;;;3.03;2.83;;;;;;;;;;5018934;28;20265;-62
2023/08/26 02:17:48;;;;;;;3.45;3.10;;;;;;;;;;5019258;28;20257;-63
2023/08/26 02:20:16;;;;;;;3.47;3.17;;;;;;;;;;5019281;28;20214;-64
2023/08/26 02:22:44;;;;;;;3.78;3.20;;;;;;;;;;5018806;28;20225;-63
2023/08/26 02:25:11;;;;;;;3.25;2.95;;;;;;;;;;5018712;28;20246;-63
2023/08/26 02:27:39;;;;;;;3.15;2.80;;;;;;;;;;5018741;28;20206;-63
2023/08/26 02:30:07;;;;;;;3.35;3.05;;;;;;;;;;5018478;28;20206;-63
2023/08/26 02:32:35;;;;;;;3.15;2.85;;;;;;;;;;5018407;28;20207;-63
2023/08/26 02:35:05;;;;;;;3.17;2.92;;;;;;;;;;5018754;28;20205;-63
2023/08/26 02:37:33;;;;;;;3.58;3.03;;;;;;;;;;5017616;28;20293;-64
2023/08/26 02:40:00;;;;;;;3.40;3.10;;;;;;;;;;5018502;28;20313;-63
2023/08/26 02:42:29;;;;;;;3.70;3.40;;;;;;;;;;5018431;28;20606;-63
2023/08/26 02:44:56;;;;;;;3.75;3.40;;;;;;;;;;5018619;28;20206;-63
2023/08/26 02:47:24;;;;;;;3.45;3.17;;;;;;;;;;5018486;28;20288;-62
2023/08/26 02:49:52;;;;;;;3.72;3.42;;;;;;;;;;5018479;28;20233;-63
2023/08/26 02:52:20;;;;;;;3.15;2.95;;;;;;;;;;5017398;28;20237;-63
2023/08/26 02:54:47;;;;;;;3.47;3.28;;;;;;;;;;5018365;28;20206;-63
2023/08/26 02:57:16;;;;;;;3.30;3.10;;;;;;;;;;5018206;28;20579;-63
2023/08/26 02:59:44;;;;;;;3.60;3.28;;;;;;;;;;5018211;28;20265;-63
2023/08/26 03:02:12;;;;;;;3.35;3.15;;;;;;;;;;5018238;28;20210;-63
2023/08/26 03:04:39;;;;;;;3.63;3.33;;;;;;;;;;5018061;28;20276;-63
2023/08/26 03:07:07;;;;;;;3.47;3.17;;;;;;;;;;5018056;28;20245;-63
2023/08/26 03:09:36;;;;;;;3.75;3.45;;;;;;;;;;5017354;28;20297;-63
2023/08/26 03:12:03;;;;;;;4.38;3.85;;;;;;;;;;5018125;28;20218;-63
2023/08/26 03:14:31;;;;;;;4.00;3.70;;;;;;;;;;5017698;28;20206;-63
2023/08/26 03:16:59;;;;;;;3.70;3.40;;;;;;;;;;5018033;28;20288;-63
2023/08/26 03:19:26;;;;;;;4.45;4.05;;;;;;;;;;5017211;28;20226;-63
2023/08/26 03:21:54;;;;;;;4.00;3.70;;;;;;;;;;5017756;28;20236;-63
2023/08/26 03:24:21;;;;;;;3.75;3.45;;;;;;;;;;5017567;28;20230;-63
2023/08/26 03:26:50;;;;;;;4.00;3.70;;;;;;;;;;5018322;28;20511;-63
2023/08/26 03:29:18;;;;;;;4.35;3.65;;;;;;;;;;5017733;28;20230;-63
2023/08/26 03:31:46;;;;;;;3.70;3.40;;;;;;;;;;5017501;28;20214;-63
2023/08/26 03:34:13;;;;;;;3.80;3.50;;;;;;;;;;5017952;28;20578;-63
2023/08/26 03:36:41;;;;;;;4.10;3.80;;;;;;;;;;5017743;28;20506;-63
2023/08/26 03:39:08;;;;;;;3.83;3.53;;;;;;;;;;5017111;28;20276;-63
2023/08/26 03:41:36;;;;;;;3.70;3.40;;;;;;;;;;5017330;28;20207;-63
2023/08/26 03:44:05;;;;;;;3.90;3.60;;;;;;;;;;5018149;28;20229;-63
2023/08/26 03:46:33;;;;;;;4.10;3.80;;;;;;;;;;5017434;28;20638;-63
2023/08/26 03:49:01;;;;;;;4.07;3.78;;;;;;;;;;5017440;28;20202;-63
2023/08/26 03:51:28;;;;;;;4.15;3.78;;;;;;;;;;5016911;28;20273;-63
2023/08/26 03:53:56;;;;;;;4.38;4.07;;;;;;;;;;5017206;28;20206;-63
2023/08/26 03:56:24;;;;;;;4.00;3.70;;;;;;;;;;5017860;28;20217;-63
2023/08/26 03:58:56;;;;;;;4.13;3.78;;;;;;;;;;5017659;28;20237;-63
2023/08/26 04:01:25;;;;;;;3.97;3.67;;;;;;;;;;5017655;28;20206;-63
2023/08/26 04:03:53;;;;;;;4.05;3.75;;;;;;;;;;5017804;28;20260;-63
2023/08/26 04:06:20;;;;;;;4.15;3.80;;;;;;;;;;5021038;28;20213;-62
2023/08/26 04:08:48;;;;;;;4.32;4.00;;;;;;;;;;5020740;28;20206;-63
2023/08/26 04:11:17;;;;;;;4.05;3.75;;;;;;;;;;5021217;28;20230;-63
2023/08/26 04:13:45;;;;;;;4.53;4.20;;;;;;;;;;5020957;28;20338;-63
2023/08/26 04:16:15;;;;;;;4.57;4.18;;;;;;;;;;5020530;28;20551;-63
2023/08/26 04:18:44;;;;;;;4.65;4.32;;;;;;;;;;5020786;28;20269;-63
2023/08/26 04:21:12;;;;;;;4.53;3.97;;;;;;;;;;5020186;28;20203;-63
2023/08/26 04:23:39;;;;;;;4.28;3.97;;;;;;;;;;5020613;28;20220;-63
2023/08/26 04:26:07;;;;;;;4.95;4.55;;;;;;;;;;5020985;28;20245;-63
2023/08/26 04:28:34;;;;;;;4.40;4.00;;;;;;;;;;5020776;28;20264;-63
2023/08/26 04:31:02;;;;;;;4.60;4.20;;;;;;;;;;5021075;28;20206;-63
2023/08/26 04:33:30;;;;;;;4.60;4.20;;;;;;;;;;5020615;28;20304;-63
2023/08/26 04:35:58;;;;;;;4.47;4.05;;;;;;;;;;5020660;28;20214;-64
2023/08/26 04:38:26;;;;;;;5.80;5.30;;;;;;;;;;5020645;28;20222;-63
2023/08/26 04:40:53;;;;;;;5.18;4.70;;;;;;;;;;5020638;28;20218;-62
2023/08/26 04:43:21;;;;;;;5.03;4.53;;;;;;;;;;5020875;28;20236;-62
2023/08/26 04:45:48;;;;;;;4.93;4.53;;;;;;;;;;5020822;28;20309;-62
2023/08/26 04:48:15;;;;;;;6.45;4.72;;;;;;;;;;5020112;28;20203;-63
2023/08/26 04:50:44;;;;;;;4.72;4.32;;;;;;;;;;5020627;28;20206;-63
2023/08/26 04:53:13;;;;;;;5.68;4.45;;;;;;;;;;5020073;28;20207;-63
2023/08/26 04:55:41;;;;;;;4.93;4.47;;;;;;;;;;5020225;28;20226;-63
2023/08/26 04:58:09;;;;;;;5.28;4.47;;;;;;;;;;5020315;28;20601;-63
2023/08/26 05:00:37;;;;;;;5.28;4.88;;;;;;;;;;5020136;28;20249;-63
2023/08/26 05:03:05;;;;;;;4.70;4.28;;;;;;;;;;5020682;28;20540;-63
2023/08/26 05:05:32;;;;;;;4.88;4.47;;;;;;;;;;5020041;28;20300;-63
2023/08/26 05:08:00;;;;;;;4.80;4.43;;;;;;;;;;5020127;28;20210;-63
2023/08/26 05:10:29;;;;;;;4.38;3.97;;;;;;;;;;5019338;28;20690;-63
2023/08/26 05:12:56;;;;;;;4.45;4.15;;;;;;;;;;5020323;28;20237;-63
2023/08/26 05:15:23;;;;;;;4.70;4.30;;;;;;;;;;5019255;28;20618;-63
2023/08/26 05:17:51;;;;;;;4.40;4.10;;;;;;;;;;5020038;28;20206;-63
2023/08/26 05:20:18;;;;;;;4.95;4.55;;;;;;;;;;5019875;28;20497;-62
2023/08/26 05:22:46;;;;;;;4.63;4.22;;;;;;;;;;5020043;28;20224;-63
2023/08/26 05:25:13;;;;;;;4.30;3.97;;;;;;;;;;5019832;28;20297;-63
2023/08/26 05:27:42;;;;;;;5.13;4.72;;;;;;;;;;5019946;28;20289;-63
2023/08/26 05:30:10;;;;;;;4.97;4.57;;;;;;;;;;5019753;28;20290;-63
2023/08/26 05:32:37;;;;;;;4.75;4.35;;;;;;;;;;5019342;28;20210;-63
2023/08/26 05:35:05;;;;;;;4.90;4.50;;;;;;;;;;5019497;28;20206;-63
2023/08/26 05:37:32;;;;;;;4.70;4.30;;;;;;;;;;5018565;28;20708;-63
2023/08/26 05:40:00;;;;;;;4.20;3.90;;;;;;;;;;5018996;28;20636;-62
2023/08/26 05:42:27;;;;;;;4.38;4.00;;;;;;;;;;5018455;28;20234;-64
2023/08/26 05:44:56;;;;;;;4.75;4.32;;;;;;;;;;5019645;28;20687;-62
2023/08/26 05:47:24;;;;;;;4.40;4.00;;;;;;;;;;5019029;28;20206;-63
2023/08/26 05:49:51;;;;;;;4.53;4.13;;;;;;;;;;5018542;28;20212;-63
2023/08/26 05:52:19;;;;;;;4.47;4.07;;;;;;;;;;5019576;28;20206;-63
2023/08/26 05:54:46;;;;;;;4.72;4.20;;;;;;;;;;5019063;28;20301;-63
2023/08/26 05:57:13;;;;;;;4.47;4.07;;;;;;;;;;5019258;28;20206;-63
2023/08/26 05:59:41;;;;;;;4.32;4.00;;;;;;;;;;5018351;28;20226;-63
2023/08/26 06:02:10;;;;;;;4.35;4.05;;;;;;;;;;5019028;28;20484;-63
2023/08/26 06:04:37;;;;;;;3.85;3.55;;;;;;;;;;5019013;28;20206;-62
2023/08/26 06:07:05;;;;;;;4.22;3.92;;;;;;;;;;5018729;28;20216;-62
2023/08/26 06:09:32;;;;;;;4.68;4.28;;;;;;;;;;5018542;28;20294;-63
2023/08/26 06:11:59;;;;;;;4.10;3.80;;;;;;;;;;5018233;28;20225;-64
2023/08/26 06:14:27;;;;;;;4.05;3.75;;;;;;;;;;5018777;28;20209;-63
2023/08/26 06:16:55;;;;;;;4.07;3.78;;;;;;;;;;5018212;28;20509;-63
2023/08/26 06:19:24;;;;;;;3.97;3.65;;;;;;;;;;5018757;28;20324;-62
2023/08/26 06:21:51;;;;;;;3.95;3.65;;;;;;;;;;5018244;28;20213;-63
2023/08/26 06:24:18;;;;;;;4.10;3.70;;;;;;;;;;5017865;28;20210;-63
2023/08/26 06:26:46;;;;;;;4.18;3.78;;;;;;;;;;5017265;28;20305;-63
2023/08/26 06:29:14;;;;;;;3.83;3.50;;;;;;;;;;5017460;28;20297;-63
2023/08/26 06:31:42;;;;;;;3.80;3.50;;;;;;;;;;5017957;28;20206;-63
2023/08/26 06:34:09;;;;;;;4.10;3.70;;;;;;;;;;5018220;28;20598;-63
2023/08/26 06:36:40;;;;;;;4.25;3.38;;;;;;;;;;5017919;28;20244;-63
2023/08/26 06:39:07;;;;;;;3.80;3.50;;;;;;;;;;5017958;28;20569;-62
2023/08/26 06:41:35;;;;;;;3.88;3.58;;;;;;;;;;5018081;28;20207;-63
2023/08/26 06:44:02;;;;;;;3.63;3.33;;;;;;;;;;5018110;28;20217;-63
2023/08/26 06:46:30;;;;;;;3.33;3.03;;;;;;;;;;5017959;28;20206;-63
2023/08/26 06:48:58;;;;;;;3.42;3.13;;;;;;;;;;5017574;28;20597;-63
2023/08/26 06:51:26;;;;;;;3.35;3.10;;;;;;;;;;5017719;28;20650;-63
2023/08/26 06:53:56;;;;;;;4.03;3.72;;;;;;;;;;5017397;28;20590;-63
2023/08/26 06:56:24;;;;;;;3.55;3.25;;;;;;;;;;5017484;28;20517;-63
2023/08/26 06:58:52;;;;;;;3.92;3.55;;;;;;;;;;5017369;28;20217;-63
2023/08/26 07:01:20;;;;;;;3.97;3.55;;;;;;;;;;5017549;28;20244;-63
2023/08/26 07:03:47;;;;;;;3.65;3.28;;;;;;;;;;5016791;28;20202;-63
2023/08/26 07:06:14;;;;;;;3.88;3.47;;;;;;;;;;5017232;28;20297;-63
2023/08/26 07:08:42;;;;;;;3.47;3.20;;;;;;;;;;5017326;28;20209;-63
2023/08/26 07:11:12;;;;;;;3.40;3.20;;;;;;;;;;5016918;28;20626;-63
2023/08/26 07:13:39;;;;;;;3.35;3.08;;;;;;;;;;5017218;28;20292;-62
2023/08/26 07:16:07;;;;;;;3.60;3.30;;;;;;;;;;5017240;28;20494;-62
2023/08/26 07:18:34;;;;;;;4.13;3.50;;;;;;;;;;5017320;28;20604;-62
2023/08/26 07:21:01;;;;;;;3.55;3.25;;;;;;;;;;4981835;28;20286;-62
2023/08/26 07:23:29;;;;;;;3.65;3.30;;;;;;;;;;4978169;28;20204;-62
2023/08/26 07:25:56;;;;;;;3.50;3.20;;;;;;;;;;4977920;28;20226;-63
2023/08/26 07:28:25;;;;;;;3.95;3.65;;;;;;;;;;4978140;28;20298;-63
2023/08/26 07:30:53;;;;;;;3.75;3.45;;;;;;;;;;4977395;28;20206;-63
2023/08/26 07:33:20;;;;;;;3.70;3.30;;;;;;;;;;4977286;28;20610;-63
2023/08/26 07:35:48;;;;;;;3.70;3.40;;;;;;;;;;4977977;28;20294;-63
2023/08/26 07:38:15;;;;;;;3.60;3.30;;;;;;;;;;4978719;28;20208;-63
2023/08/26 07:40:43;;;;;;;3.90;3.60;;;;;;;;;;4981328;28;20633;-63
2023/08/26 07:43:10;;;;;;;3.50;3.20;;;;;;;;;;4982147;28;20597;-63
2023/08/26 07:45:39;;;;;;;3.72;3.42;;;;;;;;;;4981259;28;20586;-63
2023/08/26 07:48:07;;;;;;;3.92;3.50;;;;;;;;;;4980973;28;20302;-63
2023/08/26 07:50:35;;;;;;;3.65;3.35;;;;;;;;;;4980619;28;20204;-63
2023/08/26 07:53:02;;;;;;;3.70;3.40;;;;;;;;;;4980614;28;20211;-62
2023/08/26 07:55:30;;;;;;;3.83;3.53;;;;;;;;;;4980957;28;20208;-63
2023/08/26 07:57:57;;;;;;;4.25;3.72;;;;;;;;;;4981505;28;20200;-63
2023/08/26 08:00:24;;;;;;;4.70;3.72;;;;;;;;;;4981795;28;20615;-62
2023/08/26 08:02:55;;;;;;;4.10;3.80;;;;;;;;;;4986898;28;20566;-62
2023/08/26 08:05:22;;;;;;;4.10;3.70;;;;;;;;;;5000246;28;20218;-62
2023/08/26 08:07:50;;;;;;;3.83;3.22;;;;;;;;;;5000182;28;20207;-63
2023/08/26 08:10:17;;;;;;;4.35;3.47;;;;;;;;;;5007946;28;20238;-63
2023/08/26 08:12:45;;;;;;;3.60;3.30;;;;;;;;;;5019636;28;20214;-63
2023/08/26 08:15:12;;;;;;;3.88;3.58;;;;;;;;;;5019837;28;20301;-63
2023/08/26 08:17:40;;;;;;;3.80;3.38;;;;;;;;;;5019332;28;20204;-63
2023/08/26 08:20:09;;;;;;;3.67;3.38;;;;;;;;;;5019453;28;20644;-63
2023/08/26 08:22:37;;;;;;;3.60;3.30;;;;;;;;;;5019455;28;20627;-63
2023/08/26 08:25:05;;;;;;;4.28;3.88;;;;;;;;;;5018823;28;20212;-63
2023/08/26 08:27:32;;;;;;;3.70;3.40;;;;;;;;;;5019396;28;20206;-63
2023/08/26 08:30:00;;;;;;;3.97;3.67;;;;;;;;;;5018907;28;20235;-63
2023/08/26 08:32:28;;;;;;;3.88;3.42;;;;;;;;;;5018583;28;20203;-63
2023/08/26 08:34:56;;;;;;;3.58;3.28;;;;;;;;;;5018354;28;20613;-63
2023/08/26 08:37:24;;;;;;;4.13;3.38;;;;;;;;;;5018582;28;20273;-63
2023/08/26 08:39:52;;;;;;;3.97;3.58;;;;;;;;;;5019108;28;20234;-63
2023/08/26 08:42:19;;;;;;;4.95;4.10;;;;;;;;;;5019272;28;20206;-63
2023/08/26 08:44:47;;;;;;;4.00;3.60;;;;;;;;;;5019179;28;20305;-63
2023/08/26 08:47:15;;;;;;;4.25;3.90;;;;;;;;;;5018615;28;20206;-63
2023/08/26 08:49:43;;;;;;;4.45;3.78;;;;;;;;;;5018127;28;20312;-63
2023/08/26 08:52:12;;;;;;;4.03;3.50;;;;;;;;;;5019468;28;20206;-63
2023/08/26 08:54:41;;;;;;;4.20;3.80;;;;;;;;;;5018430;28;20289;-63
2023/08/26 08:57:12;;;;;;;4.30;3.40;;;;;;;;;;5018426;28;20577;-63
2023/08/26 08:59:40;;;;;;;4.28;3.90;;;;;;;;;;5017379;28;20473;-63
2023/08/26 09:02:08;;;;;;;4.88;3.80;;;;;;;;;;5018552;28;20718;-62
2023/08/26 09:04:35;;;;;;;3.75;3.45;;;;;;;;;;5018678;28;20563;-62
2023/08/26 09:07:03;;;;;;;5.10;4.55;;;;;;;;;;5018442;28;20208;-63
2023/08/26 09:09:31;;;;;;;4.03;3.72;;;;;;;;;;5017366;28;20601;-63
2023/08/26 09:12:01;;;;;;;4.18;3.50;;;;;;;;;;4998854;28;20215;-63
2023/08/26 09:14:29;;;;;;;5.43;3.72;;;;;;;;;;4999036;28;20207;-63
2023/08/26 09:16:56;;;;;;;4.70;3.60;;;;;;;;;;4999358;28;20207;-63
2023/08/26 09:19:24;;;;;;;4.43;3.75;;;;;;;;;;4998993;28;20207;-63
2023/08/26 09:21:51;;;;;;;4.75;3.72;;;;;;;;;;4998411;28;20207;-62
2023/08/26 09:24:19;;;;;;;4.68;3.75;;;;;;;;;;4997944;28;20518;-63
2023/08/26 09:26:59;;;;;;;4.95;4.18;;;;;;;;;;4998345;28;20207;-63
2023/08/26 09:29:28;;;;;;;5.07;3.90;;;;;;;;;;4997700;28;20613;-63
2023/08/26 09:31:55;;;;;;;4.70;3.95;;;;;;;;;;4998035;28;20218;-63
2023/08/26 09:34:28;;;;;;;5.50;3.63;;;;;;;;;;4998342;28;20257;-63
2023/08/26 09:36:56;;;;;;;4.43;4.03;;;;;;;;;;4998375;28;20599;-63
2023/08/26 09:39:25;;;;;;;5.10;3.70;;;;;;;;;;4998229;28;20207;-63
2023/08/26 09:41:52;;;;;;;4.03;3.55;;;;;;;;;;4998327;28;20215;-63
2023/08/26 09:44:21;;;;;;;5.57;3.80;;;;;;;;;;4998136;28;20207;-63
2023/08/26 09:46:50;;;;;;;4.65;3.53;;;;;;;;;;4998114;28;20207;-63
2023/08/26 09:49:18;;;;;;;4.88;3.75;;;;;;;;;;4997637;28;20277;-63
2023/08/26 09:51:49;;;;;;;5.07;3.50;;;;;;;;;;4998309;28;20464;-63
2023/08/26 09:54:18;;;;;;;3.92;3.28;;;;;;;;;;4998011;28;20580;-63
2023/08/26 09:56:46;;;;;;;4.32;3.65;;;;;;;;;;4998178;28;20279;-63
2023/08/26 09:59:14;;;;;;;4.85;3.40;;;;;;;;;;4997772;28;20313;-62
2023/08/26 10:01:42;;;;;;;4.60;3.50;;;;;;;;;;4996714;28;20879;-62
2023/08/26 10:04:11;;;;;;;4.40;3.28;;;;;;;;;;4997594;28;20218;-63
2023/08/26 10:06:42;;;;;;;5.50;3.88;;;;;;;;;;4997682;28;20238;-62
2023/08/26 10:09:17;;;;;;;6.40;3.80;;;;;;;;;;4997334;28;20209;-63
2023/08/26 10:11:45;;;;;;;4.88;3.28;;;;;;;;;;5016629;28;20229;-63
2023/08/26 10:14:13;;;;;;;5.18;3.45;;;;;;;;;;5017703;28;20211;-63
2023/08/26 10:16:42;;;;;;;4.68;3.30;;;;;;;;;;5017130;28;20531;-63
2023/08/26 10:19:13;;;;;;;4.15;3.22;;;;;;;;;;5017632;28;20207;-63
2023/08/26 10:21:41;;;;;;;5.18;3.47;;;;;;;;;;5016697;28;20226;-63
2023/08/26 10:24:08;;;;;;;4.40;3.47;;;;;;;;;;5009280;28;20495;-63
2023/08/26 10:26:36;;;;;;;5.30;3.60;;;;;;;;;;4998394;28;20222;-63
2023/08/26 10:29:04;;;;;;;6.28;3.28;;;;;;;;;;4997348;28;20207;-64
2023/08/26 10:31:35;;;;;;;4.68;3.60;;;;;;;;;;4997119;28;20206;-63
2023/08/26 10:34:13;;;;;;;5.78;3.80;;;;;;;;;;4997268;28;20203;-64
2023/08/26 10:36:42;;;;;;;4.47;3.78;;;;;;;;;;5008250;28;20580;-63
2023/08/26 10:39:15;;;;;;;5.47;3.28;;;;;;;;;;5007719;28;20654;-63
2023/08/26 10:42:05;;;;;;;4.85;3.13;;;;;;;;;;5016490;28;20233;-63
2023/08/26 10:44:32;;;;;;;5.68;3.53;;;;;;;;;;5016706;28;20206;-63
2023/08/26 10:47:00;;;;;;;4.18;3.03;;;;;;;;;;5015979;28;20206;-63
2023/08/26 10:49:29;;;;;;;4.15;3.50;;;;;;;;;;5016419;28;20198;-63
2023/08/26 10:52:10;;;;;;;4.38;3.45;;;;;;;;;;5016546;28;20211;-63
2023/08/26 10:54:37;;;;;;;5.85;3.40;;;;;;;;;;5015437;28;20206;-63
2023/08/26 10:57:07;;;;;;;5.47;3.25;;;;;;;;;;5015979;28;20198;-63
2023/08/26 10:59:38;;;;;;;6.05;3.47;;;;;;;;;;5016490;28;20268;-63
2023/08/26 11:02:08;;;;;;;4.43;3.33;;;;;;;;;;5015811;28;20277;-63
2023/08/26 11:04:37;;;;;;;6.25;3.55;;;;;;;;;;5015022;28;20202;-63
2023/08/26 11:07:04;;;;;;;7.22;3.53;;;;;;;;;;5015599;28;20675;-63
2023/08/26 11:09:33;;;;;;;5.25;3.20;;;;;;;;;;5015471;28;20301;-63
2023/08/26 11:12:00;;;;;;;5.10;3.58;;;;;;;;;;5015643;28;20245;-63
2023/08/26 11:14:32;;;;;;;3.78;3.30;;;;;;;;;;5015253;28;20316;-63
2023/08/26 11:17:02;;;;;;;4.55;2.97;;;;;;;;;;5016416;28;20284;-63
2023/08/26 11:19:30;;;;;;;5.32;3.30;;;;;;;;;;5015765;28;20543;-63
2023/08/26 11:21:58;;;;;;;3.75;3.00;;;;;;;;;;5016026;28;20241;-63
2023/08/26 11:24:33;;;;;;;5.25;3.42;;;;;;;;;;5015349;28;20202;-63
2023/08/26 11:27:03;;;;;;;5.57;3.13;;;;;;;;;;5014745;28;20214;-63
2023/08/26 11:29:31;;;;;;;4.18;3.17;;;;;;;;;;5015497;28;20312;-63
2023/08/26 11:31:58;;;;;;;5.53;3.33;;;;;;;;;;5015538;28;20198;-63
2023/08/26 11:34:25;;;;;;;8.95;3.40;;;;;;;;;;5015712;28;20198;-63
2023/08/26 11:36:54;;;;;;;3.83;2.90;;;;;;;;;;5015081;28;20224;-63
2023/08/26 11:39:21;;;;;;;4.03;3.00;;;;;;;;;;5015727;28;20206;-63
2023/08/26 11:41:50;;;;;;;6.25;3.67;;;;;;;;;;5015491;28;20252;-63
2023/08/26 11:44:18;;;;;;;3.97;3.25;;;;;;;;;;5015433;28;20206;-63
2023/08/26 11:46:45;;;;;;;4.88;3.00;;;;;;;;;;5014195;28;20206;-63
2023/08/26 11:49:13;;;;;;;5.90;3.20;;;;;;;;;;5014693;28;20209;-63
2023/08/26 11:51:43;;;;;;;4.50;3.40;;;;;;;;;;5014832;28;20233;-63
2023/08/26 11:54:10;;;;;;;3.95;3.08;;;;;;;;;;5016176;28;20305;-63
2023/08/26 11:56:38;;;;;;;6.18;3.20;;;;;;;;;;5015209;28;20205;-63
2023/08/26 11:59:19;;;;;;;4.78;2.95;;;;;;;;;;5015417;28;20221;-63
2023/08/26 12:01:46;;;;;;;4.82;3.15;;;;;;;;;;5015097;28;20241;-63
2023/08/26 12:04:14;;;;;;;5.80;3.25;;;;;;;;;;5015116;28;20206;-64
2023/08/26 12:06:41;;;;;;;5.10;3.40;;;;;;;;;;5015763;28;20237;-63
2023/08/26 12:09:11;;;;;;;6.40;3.50;;;;;;;;;;5015085;28;20209;-63
2023/08/26 12:11:40;;;;;;;4.68;3.25;;;;;;;;;;5015175;28;20541;-63
2023/08/26 12:14:22;;;;;;;3.65;2.97;;;;;;;;;;5015013;28;20313;-63
2023/08/26 12:16:51;;;;;;;4.20;3.03;;;;;;;;;;5012577;28;20617;-63
2023/08/26 12:19:19;;;;;;;5.57;3.22;;;;;;;;;;5014944;28;20210;-63
2023/08/26 12:21:51;;;;;;;5.10;3.10;;;;;;;;;;5014922;28;20269;-63
2023/08/26 12:24:22;;;;;;;4.07;2.80;;;;;;;;;;5014979;28;20289;-63
2023/08/26 12:26:49;;;;;;;6.82;3.10;;;;;;;;;;5018723;28;20210;-63
2023/08/26 12:29:17;;;;;;;6.32;3.47;;;;;;;;;;5018503;28;20618;-63
2023/08/26 12:31:44;;;;;;;4.82;3.13;;;;;;;;;;5017859;28;20586;-63
2023/08/26 12:34:13;;;;;;;4.53;3.20;;;;;;;;;;5018385;28;20268;-63
2023/08/26 12:36:41;;;;;;;6.18;3.22;;;;;;;;;;5019358;28;20206;-63
2023/08/26 12:39:08;;;;;;;4.28;3.10;;;;;;;;;;5018236;28;20857;-63
2023/08/26 12:41:36;;;;;;;5.18;3.08;;;;;;;;;;5018286;28;20234;-63
2023/08/26 12:44:03;;;;;;;5.78;3.10;;;;;;;;;;5019172;28;20210;-63
2023/08/26 12:46:31;;;;;;;5.90;3.17;;;;;;;;;;5018797;28;20211;-63
2023/08/26 12:48:58;;;;;;;4.90;3.40;;;;;;;;;;5018246;28;20206;-63
2023/08/26 12:51:27;;;;;;;5.00;3.50;;;;;;;;;;5018676;28;20213;-63
2023/08/26 12:53:54;;;;;;;5.38;3.13;;;;;;;;;;5018552;28;20206;-63
2023/08/26 12:56:22;;;;;;;5.25;3.20;;;;;;;;;;5018283;28;20206;-63
2023/08/26 12:58:49;;;;;;;4.13;2.90;;;;;;;;;;5018671;28;20206;-63
2023/08/26 13:01:17;;;;;;;5.80;3.22;;;;;;;;;;5018426;28;20250;-63
2023/08/26 13:03:45;;;;;;;5.55;3.03;;;;;;;;;;5017957;28;20301;-63
2023/08/26 13:06:13;;;;;;;6.22;3.10;;;;;;;;;;5018420;28;20206;-63
2023/08/26 13:08:41;;;;;;;4.22;2.88;;;;;;;;;;5018855;28;20276;-63
2023/08/26 13:11:09;;;;;;;6.60;3.40;;;;;;;;;;5018049;28;20511;-63
2023/08/26 13:13:36;;;;;;;7.15;3.20;;;;;;;;;;5017765;28;20207;-63
2023/08/26 13:16:04;;;;;;;5.85;3.40;;;;;;;;;;5017480;28;20232;-62
2023/08/26 13:18:32;;;;;;;4.53;3.22;;;;;;;;;;5016874;28;20206;-63
2023/08/26 13:21:00;;;;;;;6.03;3.22;;;;;;;;;;5017105;28;20230;-63
2023/08/26 13:23:27;;;;;;;4.68;3.22;;;;;;;;;;5017148;28;20600;-63
2023/08/26 13:25:56;;;;;;;4.63;3.08;;;;;;;;;;5018155;28;20213;-62
2023/08/26 13:28:23;;;;;;;4.10;3.08;;;;;;;;;;5017169;28;20203;-62
2023/08/26 13:30:51;;;;;;;4.72;3.10;;;;;;;;;;5016807;28;20500;-62
2023/08/26 13:33:19;;;;;;;5.18;3.38;;;;;;;;;;5017400;28;20228;-63
2023/08/26 13:35:46;;;;;;;3.63;3.00;;;;;;;;;;5016562;28;20214;-63
2023/08/26 13:38:14;;;;;;;4.63;3.20;;;;;;;;;;5017239;28;20207;-63
2023/08/26 13:40:41;;;;;;;4.13;3.50;;;;;;;;;;5017697;28;20202;-64
2023/08/26 13:43:10;;;;;;;4.43;3.20;;;;;;;;;;5016829;28;20689;-63
2023/08/26 13:45:37;;;;;;;4.32;3.17;;;;;;;;;;5017082;28;20218;-63
2023/08/26 13:48:05;;;;;;;3.28;2.97;;;;;;;;;;5017995;28;20214;-63
2023/08/26 13:50:33;;;;;;;3.90;3.30;;;;;;;;;;5017488;28;20206;-63
2023/08/26 13:53:00;;;;;;;4.47;3.13;;;;;;;;;;5017066;28;20774;-63
2023/08/26 13:55:28;;;;;;;3.78;3.05;;;;;;;;;;5017249;28;20702;-63
2023/08/26 13:57:55;;;;;;;4.20;2.95;;;;;;;;;;5016398;28;20213;-63
2023/08/26 14:00:25;;;;;;;4.07;3.17;;;;;;;;;;5017205;28;20304;-62
2023/08/26 14:02:52;;;;;;;5.03;3.20;;;;;;;;;;5017624;28;20237;-63
2023/08/26 14:05:20;;;;;;;4.03;3.08;;;;;;;;;;5017034;28;20224;-63
2023/08/26 14:07:47;;;;;;;4.65;3.20;;;;;;;;;;5015481;28;20248;-63
2023/08/26 14:10:15;;;;;;;5.57;3.30;;;;;;;;;;5015888;28;20240;-62
2023/08/26 14:12:43;;;;;;;7.75;3.70;;;;;;;;;;5016600;28;20297;-62
2023/08/26 14:15:12;;;;;;;4.10;2.97;;;;;;;;;;5017221;28;20343;-63
2023/08/26 14:17:41;;;;;;;7.55;3.60;;;;;;;;;;5015708;28;20206;-63
2023/08/26 14:20:09;;;;;;;5.22;3.20;;;;;;;;;;5015772;28;20570;-63
2023/08/26 14:22:36;;;;;;;5.55;3.42;;;;;;;;;;5015765;28;20218;-63
2023/08/26 14:25:03;;;;;;;4.90;3.20;;;;;;;;;;5015697;28;20202;-62
2023/08/26 14:27:31;;;;;;;4.05;2.90;;;;;;;;;;5015546;28;20198;-62
2023/08/26 14:29:59;;;;;;;5.32;3.28;;;;;;;;;;5015380;28;20256;-63
2023/08/26 14:32:26;;;;;;;4.18;3.08;;;;;;;;;;5016105;28;20256;-62
2023/08/26 14:34:55;;;;;;;6.22;3.20;;;;;;;;;;5016268;28;20203;-63
2023/08/26 14:37:22;;;;;;;5.20;3.33;;;;;;;;;;5016082;28;20213;-63
2023/08/26 14:39:50;;;;;;;5.47;3.00;;;;;;;;;;5016790;28;20253;-63
2023/08/26 14:42:17;;;;;;;4.28;3.10;;;;;;;;;;5016071;28;20230;-62
2023/08/26 14:44:45;;;;;;;4.07;3.05;;;;;;;;;;5014169;28;20213;-63
2023/08/26 14:47:12;;;;;;;4.45;2.92;;;;;;;;;;5014981;28;20206;-62
2023/08/26 14:49:40;;;;;;;5.97;3.40;;;;;;;;;;5006144;28;20214;-62